sensor_id;sensor_type;location;lat;lon;timestamp;temperature;humidity
77247;SHT35;66279;42.820;23.374;2023-03-01T00:00:53;6.18;78.60
77247;SHT35;66279;42.820;23.374;2023-03-01T00:03:19;6.17;78.56
77247;SHT35;66279;42.820;23.374;2023-03-01T00:05:46;6.13;77.59
77247;SHT35;66279;42.820;23.374;2023-03-01T00:08:12;6.11;78.08
77247;SHT35;66279;42.820;23.374;2023-03-01T00:10:38;6.08;77.93
77247;SHT35;66279;42.820;23.374;2023-03-01T00:13:04;6.10;77.46
77247;SHT35;66279;42.820;23.374;2023-03-01T00:15:31;6.13;77.86
77247;SHT35;66279;42.820;23.374;2023-03-01T00:17:57;6.16;78.24
77247;SHT35;66279;42.820;23.374;2023-03-01T00:20:23;6.16;78.57
77247;SHT35;66279;42.820;23.374;2023-03-01T00:22:48;6.13;78.59
77247;SHT35;66279;42.820;23.374;2023-03-01T00:25:14;6.14;78.31
77247;SHT35;66279;42.820;23.374;2023-03-01T00:27:39;6.10;78.33
77247;SHT35;66279;42.820;23.374;2023-03-01T00:30:05;6.13;78.03
77247;SHT35;66279;42.820;23.374;2023-03-01T00:32:31;6.14;78.95
77247;SHT35;66279;42.820;23.374;2023-03-01T00:34:57;6.17;77.56
77247;SHT35;66279;42.820;23.374;2023-03-01T00:37:23;6.13;77.45
77247;SHT35;66279;42.820;23.374;2023-03-01T00:39:49;6.14;76.92
77247;SHT35;66279;42.820;23.374;2023-03-01T00:42:15;6.16;77.16
77247;SHT35;66279;42.820;23.374;2023-03-01T00:44:41;6.14;76.63
77247;SHT35;66279;42.820;23.374;2023-03-01T00:47:07;6.11;76.95
77247;SHT35;66279;42.820;23.374;2023-03-01T00:49:33;6.10;77.03
77247;SHT35;66279;42.820;23.374;2023-03-01T00:51:58;6.07;76.96
77247;SHT35;66279;42.820;23.374;2023-03-01T00:54:24;6.08;75.79
77247;SHT35;66279;42.820;23.374;2023-03-01T00:56:50;6.07;75.84
77247;SHT35;66279;42.820;23.374;2023-03-01T00:59:15;6.03;76.32
77247;SHT35;66279;42.820;23.374;2023-03-01T01:01:41;6.00;76.64
77247;SHT35;66279;42.820;23.374;2023-03-01T01:04:12;5.98;76.25
77247;SHT35;66279;42.820;23.374;2023-03-01T01:06:40;5.97;76.55
77247;SHT35;66279;42.820;23.374;2023-03-01T01:09:08;5.98;76.19
77247;SHT35;66279;42.820;23.374;2023-03-01T01:11:35;5.96;75.85
77247;SHT35;66279;42.820;23.374;2023-03-01T01:14:02;5.96;76.19
77247;SHT35;66279;42.820;23.374;2023-03-01T01:16:28;5.93;76.17
77247;SHT35;66279;42.820;23.374;2023-03-01T01:18:54;5.87;76.40
77247;SHT35;66279;42.820;23.374;2023-03-01T01:21:22;5.87;75.86
77247;SHT35;66279;42.820;23.374;2023-03-01T01:23:49;5.85;75.68
77247;SHT35;66279;42.820;23.374;2023-03-01T01:26:35;5.80;75.84
77247;SHT35;66279;42.820;23.374;2023-03-01T01:29:02;5.76;75.95
77247;SHT35;66279;42.820;23.374;2023-03-01T01:31:29;5.77;76.46
77247;SHT35;66279;42.820;23.374;2023-03-01T01:33:55;5.79;76.17
77247;SHT35;66279;42.820;23.374;2023-03-01T01:36:22;5.79;75.88
77247;SHT35;66279;42.820;23.374;2023-03-01T01:38:48;5.74;76.03
77247;SHT35;66279;42.820;23.374;2023-03-01T01:41:14;5.74;75.77
77247;SHT35;66279;42.820;23.374;2023-03-01T01:43:49;5.71;75.94
77247;SHT35;66279;42.820;23.374;2023-03-01T01:46:32;5.67;76.33
77247;SHT35;66279;42.820;23.374;2023-03-01T01:49:01;5.69;76.41
77247;SHT35;66279;42.820;23.374;2023-03-01T01:51:31;5.67;75.91
77247;SHT35;66279;42.820;23.374;2023-03-01T01:54:08;5.66;75.93
77247;SHT35;66279;42.820;23.374;2023-03-01T01:56:37;5.66;75.80
77247;SHT35;66279;42.820;23.374;2023-03-01T01:59:04;5.60;75.93
77247;SHT35;66279;42.820;23.374;2023-03-01T02:01:30;5.59;76.05
77247;SHT35;66279;42.820;23.374;2023-03-01T02:03:56;5.58;76.17
77247;SHT35;66279;42.820;23.374;2023-03-01T02:06:27;5.58;75.68
77247;SHT35;66279;42.820;23.374;2023-03-01T02:09:00;5.55;76.05
77247;SHT35;66279;42.820;23.374;2023-03-01T02:11:27;5.55;75.93
77247;SHT35;66279;42.820;23.374;2023-03-01T02:13:54;5.52;76.09
77247;SHT35;66279;42.820;23.374;2023-03-01T02:16:20;5.50;76.43
77247;SHT35;66279;42.820;23.374;2023-03-01T02:18:46;5.50;76.46
77247;SHT35;66279;42.820;23.374;2023-03-01T02:24:22;5.48;76.13
77247;SHT35;66279;42.820;23.374;2023-03-01T02:26:51;5.43;76.52
77247;SHT35;66279;42.820;23.374;2023-03-01T02:29:18;5.48;75.95
77247;SHT35;66279;42.820;23.374;2023-03-01T02:31:44;5.46;75.82
77247;SHT35;66279;42.820;23.374;2023-03-01T02:34:22;5.45;75.88
77247;SHT35;66279;42.820;23.374;2023-03-01T02:36:58;5.46;75.44
77247;SHT35;66279;42.820;23.374;2023-03-01T02:39:39;5.40;75.55
77247;SHT35;66279;42.820;23.374;2023-03-01T02:42:11;5.38;75.56
77247;SHT35;66279;42.820;23.374;2023-03-01T02:44:37;5.35;75.97
77247;SHT35;66279;42.820;23.374;2023-03-01T02:47:03;5.34;75.99
77247;SHT35;66279;42.820;23.374;2023-03-01T02:49:33;5.34;76.14
77247;SHT35;66279;42.820;23.374;2023-03-01T02:55:12;5.36;75.75
77247;SHT35;66279;42.820;23.374;2023-03-01T02:57:42;5.31;75.90
77247;SHT35;66279;42.820;23.374;2023-03-01T03:00:15;5.29;75.48
77247;SHT35;66279;42.820;23.374;2023-03-01T03:02:50;5.28;75.36
77247;SHT35;66279;42.820;23.374;2023-03-01T03:05:24;5.28;75.08
77247;SHT35;66279;42.820;23.374;2023-03-01T03:07:51;5.28;75.13
77247;SHT35;66279;42.820;23.374;2023-03-01T03:10:26;5.29;75.11
77247;SHT35;66279;42.820;23.374;2023-03-01T03:12:54;5.32;75.36
77247;SHT35;66279;42.820;23.374;2023-03-01T03:15:21;5.34;76.00
77247;SHT35;66279;42.820;23.374;2023-03-01T03:17:48;5.34;75.48
77247;SHT35;66279;42.820;23.374;2023-03-01T03:20:17;5.36;75.53
77247;SHT35;66279;42.820;23.374;2023-03-01T03:22:48;5.40;76.85
77247;SHT35;66279;42.820;23.374;2023-03-01T03:25:15;5.38;76.67
77247;SHT35;66279;42.820;23.374;2023-03-01T03:27:43;5.39;76.91
77247;SHT35;66279;42.820;23.374;2023-03-01T03:30:12;5.36;75.12
77247;SHT35;66279;42.820;23.374;2023-03-01T03:32:39;5.34;75.10
77247;SHT35;66279;42.820;23.374;2023-03-01T03:35:07;5.32;75.49
77247;SHT35;66279;42.820;23.374;2023-03-01T03:37:41;5.32;75.04
77247;SHT35;66279;42.820;23.374;2023-03-01T03:40:26;5.31;75.52
77247;SHT35;66279;42.820;23.374;2023-03-01T03:42:51;5.29;75.20
77247;SHT35;66279;42.820;23.374;2023-03-01T03:45:17;5.28;75.14
77247;SHT35;66279;42.820;23.374;2023-03-01T03:47:43;5.28;75.35
77247;SHT35;66279;42.820;23.374;2023-03-01T03:50:11;5.22;75.29
77247;SHT35;66279;42.820;23.374;2023-03-01T03:52:37;5.22;75.29
77247;SHT35;66279;42.820;23.374;2023-03-01T03:55:04;5.18;75.37
77247;SHT35;66279;42.820;23.374;2023-03-01T03:57:40;5.15;75.64
77247;SHT35;66279;42.820;23.374;2023-03-01T04:00:09;5.14;75.67
77247;SHT35;66279;42.820;23.374;2023-03-01T04:02:45;5.15;75.48
77247;SHT35;66279;42.820;23.374;2023-03-01T04:05:13;5.17;75.16
77247;SHT35;66279;42.820;23.374;2023-03-01T04:07:40;5.12;75.36
77247;SHT35;66279;42.820;23.374;2023-03-01T04:10:12;5.11;75.59
77247;SHT35;66279;42.820;23.374;2023-03-01T04:12:38;5.08;75.78
77247;SHT35;66279;42.820;23.374;2023-03-01T04:15:05;5.07;75.99
77247;SHT35;66279;42.820;23.374;2023-03-01T04:17:43;5.02;76.40
77247;SHT35;66279;42.820;23.374;2023-03-01T04:20:15;5.01;76.44
77247;SHT35;66279;42.820;23.374;2023-03-01T04:22:51;4.97;76.83
77247;SHT35;66279;42.820;23.374;2023-03-01T04:25:17;4.98;77.20
77247;SHT35;66279;42.820;23.374;2023-03-01T04:27:43;4.95;77.00
77247;SHT35;66279;42.820;23.374;2023-03-01T04:30:09;4.95;76.86
77247;SHT35;66279;42.820;23.374;2023-03-01T04:32:35;4.94;76.99
77247;SHT35;66279;42.820;23.374;2023-03-01T04:35:00;4.95;76.46
77247;SHT35;66279;42.820;23.374;2023-03-01T04:37:27;4.97;76.49
77247;SHT35;66279;42.820;23.374;2023-03-01T04:39:52;4.94;76.75
77247;SHT35;66279;42.820;23.374;2023-03-01T04:42:18;4.98;76.51
77247;SHT35;66279;42.820;23.374;2023-03-01T04:44:44;4.98;76.28
77247;SHT35;66279;42.820;23.374;2023-03-01T04:47:10;5.01;75.86
77247;SHT35;66279;42.820;23.374;2023-03-01T04:49:36;4.99;75.98
77247;SHT35;66279;42.820;23.374;2023-03-01T04:52:03;4.99;75.75
77247;SHT35;66279;42.820;23.374;2023-03-01T04:54:33;5.01;75.34
77247;SHT35;66279;42.820;23.374;2023-03-01T04:57:00;4.99;75.15
77247;SHT35;66279;42.820;23.374;2023-03-01T04:59:26;4.99;75.08
77247;SHT35;66279;42.820;23.374;2023-03-01T05:01:53;4.99;75.28
77247;SHT35;66279;42.820;23.374;2023-03-01T05:04:24;5.02;75.30
77247;SHT35;66279;42.820;23.374;2023-03-01T05:06:49;5.01;75.31
77247;SHT35;66279;42.820;23.374;2023-03-01T05:09:15;5.02;75.20
77247;SHT35;66279;42.820;23.374;2023-03-01T05:11:41;4.99;75.13
77247;SHT35;66279;42.820;23.374;2023-03-01T05:14:08;5.01;74.71
77247;SHT35;66279;42.820;23.374;2023-03-01T05:16:34;5.02;74.49
77247;SHT35;66279;42.820;23.374;2023-03-01T05:19:00;5.01;74.74
77247;SHT35;66279;42.820;23.374;2023-03-01T05:21:26;4.97;74.87
77247;SHT35;66279;42.820;23.374;2023-03-01T05:23:51;4.97;74.90
77247;SHT35;66279;42.820;23.374;2023-03-01T05:26:19;4.99;74.44
77247;SHT35;66279;42.820;23.374;2023-03-01T05:28:47;5.01;74.79
77247;SHT35;66279;42.820;23.374;2023-03-01T05:31:12;5.01;74.68
77247;SHT35;66279;42.820;23.374;2023-03-01T05:33:41;5.02;74.56
77247;SHT35;66279;42.820;23.374;2023-03-01T05:36:08;5.04;74.56
77247;SHT35;66279;42.820;23.374;2023-03-01T05:38:35;4.99;74.53
77247;SHT35;66279;42.820;23.374;2023-03-01T05:41:00;5.02;74.76
77247;SHT35;66279;42.820;23.374;2023-03-01T05:43:26;5.04;74.88
77247;SHT35;66279;42.820;23.374;2023-03-01T05:45:57;5.04;74.67
77247;SHT35;66279;42.820;23.374;2023-03-01T05:48:22;5.05;74.17
77247;SHT35;66279;42.820;23.374;2023-03-01T05:50:48;5.04;74.68
77247;SHT35;66279;42.820;23.374;2023-03-01T05:53:19;5.04;74.65
77247;SHT35;66279;42.820;23.374;2023-03-01T05:55:46;5.05;74.70
77247;SHT35;66279;42.820;23.374;2023-03-01T05:58:19;5.07;74.71
77247;SHT35;66279;42.820;23.374;2023-03-01T06:00:46;5.11;74.93
77247;SHT35;66279;42.820;23.374;2023-03-01T06:03:15;5.14;74.34
77247;SHT35;66279;42.820;23.374;2023-03-01T06:05:41;5.19;74.28
77247;SHT35;66279;42.820;23.374;2023-03-01T06:08:07;5.19;74.40
77247;SHT35;66279;42.820;23.374;2023-03-01T06:10:34;5.22;74.61
77247;SHT35;66279;42.820;23.374;2023-03-01T06:13:00;5.27;73.92
77247;SHT35;66279;42.820;23.374;2023-03-01T06:15:26;5.29;74.40
77247;SHT35;66279;42.820;23.374;2023-03-01T06:17:53;5.29;74.10
77247;SHT35;66279;42.820;23.374;2023-03-01T06:20:23;5.24;74.00
77247;SHT35;66279;42.820;23.374;2023-03-01T06:22:49;5.28;73.81
77247;SHT35;66279;42.820;23.374;2023-03-01T06:25:17;5.32;73.83
77247;SHT35;66279;42.820;23.374;2023-03-01T06:27:43;5.32;73.83
77247;SHT35;66279;42.820;23.374;2023-03-01T06:30:11;5.32;74.01
77247;SHT35;66279;42.820;23.374;2023-03-01T06:32:38;5.35;73.81
77247;SHT35;66279;42.820;23.374;2023-03-01T06:35:08;5.32;73.89
77247;SHT35;66279;42.820;23.374;2023-03-01T06:37:33;5.40;74.01
77247;SHT35;66279;42.820;23.374;2023-03-01T06:40:01;5.43;73.66
77247;SHT35;66279;42.820;23.374;2023-03-01T06:42:30;5.46;73.73
77247;SHT35;66279;42.820;23.374;2023-03-01T06:44:56;5.52;73.73
77247;SHT35;66279;42.820;23.374;2023-03-01T06:47:22;5.48;74.17
77247;SHT35;66279;42.820;23.374;2023-03-01T06:49:47;5.56;73.47
77247;SHT35;66279;42.820;23.374;2023-03-01T06:52:13;5.55;73.67
77247;SHT35;66279;42.820;23.374;2023-03-01T06:54:38;5.56;73.19
77247;SHT35;66279;42.820;23.374;2023-03-01T06:57:04;5.62;73.34
77247;SHT35;66279;42.820;23.374;2023-03-01T06:59:29;5.66;73.14
77247;SHT35;66279;42.820;23.374;2023-03-01T07:01:55;5.73;73.54
77247;SHT35;66279;42.820;23.374;2023-03-01T07:04:20;5.85;72.68
77247;SHT35;66279;42.820;23.374;2023-03-01T07:06:46;5.86;72.64
77247;SHT35;66279;42.820;23.374;2023-03-01T07:09:17;5.90;73.06
77247;SHT35;66279;42.820;23.374;2023-03-01T07:11:44;5.94;72.67
77247;SHT35;66279;42.820;23.374;2023-03-01T07:14:10;5.87;72.31
77247;SHT35;66279;42.820;23.374;2023-03-01T07:16:35;5.89;72.10
77247;SHT35;66279;42.820;23.374;2023-03-01T07:19:01;5.94;72.61
77247;SHT35;66279;42.820;23.374;2023-03-01T07:21:26;5.97;72.19
77247;SHT35;66279;42.820;23.374;2023-03-01T07:23:52;5.97;72.10
77247;SHT35;66279;42.820;23.374;2023-03-01T07:26:17;5.97;72.59
77247;SHT35;66279;42.820;23.374;2023-03-01T07:28:43;6.01;72.50
77247;SHT35;66279;42.820;23.374;2023-03-01T07:31:08;6.08;72.79
77247;SHT35;66279;42.820;23.374;2023-03-01T07:33:34;6.18;71.92
77247;SHT35;66279;42.820;23.374;2023-03-01T07:36:02;6.25;72.11
77247;SHT35;66279;42.820;23.374;2023-03-01T07:38:29;6.24;72.55
77247;SHT35;66279;42.820;23.374;2023-03-01T07:40:59;6.31;72.60
77247;SHT35;66279;42.820;23.374;2023-03-01T07:43:26;6.27;72.14
77247;SHT35;66279;42.820;23.374;2023-03-01T07:45:51;6.27;72.39
77247;SHT35;66279;42.820;23.374;2023-03-01T07:48:17;6.34;72.00
77247;SHT35;66279;42.820;23.374;2023-03-01T07:50:42;6.38;71.77
77247;SHT35;66279;42.820;23.374;2023-03-01T07:53:09;6.46;72.15
77247;SHT35;66279;42.820;23.374;2023-03-01T07:55:34;6.53;72.08
77247;SHT35;66279;42.820;23.374;2023-03-01T07:58:00;6.44;72.18
77247;SHT35;66279;42.820;23.374;2023-03-01T08:00:25;6.35;73.07
77247;SHT35;66279;42.820;23.374;2023-03-01T08:02:51;6.35;73.65
77247;SHT35;66279;42.820;23.374;2023-03-01T08:05:16;6.37;73.30
77247;SHT35;66279;42.820;23.374;2023-03-01T08:07:42;6.41;73.18
77247;SHT35;66279;42.820;23.374;2023-03-01T08:10:08;6.38;73.43
77247;SHT35;66279;42.820;23.374;2023-03-01T08:12:34;6.42;72.99
77247;SHT35;66279;42.820;23.374;2023-03-01T08:14:59;6.48;73.12
77247;SHT35;66279;42.820;23.374;2023-03-01T08:17:25;6.50;73.07
77247;SHT35;66279;42.820;23.374;2023-03-01T08:19:50;6.53;72.87
77247;SHT35;66279;42.820;23.374;2023-03-01T08:22:16;6.59;73.04
77247;SHT35;66279;42.820;23.374;2023-03-01T08:24:41;6.49;72.57
77247;SHT35;66279;42.820;23.374;2023-03-01T08:27:07;6.61;73.31
77247;SHT35;66279;42.820;23.374;2023-03-01T08:29:33;6.65;72.05
77247;SHT35;66279;42.820;23.374;2023-03-01T08:31:59;6.56;72.53
77247;SHT35;66279;42.820;23.374;2023-03-01T08:34:25;6.55;72.68
77247;SHT35;66279;42.820;23.374;2023-03-01T08:36:50;6.56;72.42
77247;SHT35;66279;42.820;23.374;2023-03-01T08:39:19;6.46;72.31
77247;SHT35;66279;42.820;23.374;2023-03-01T08:41:45;6.58;72.64
77247;SHT35;66279;42.820;23.374;2023-03-01T08:44:13;6.72;73.01
77247;SHT35;66279;42.820;23.374;2023-03-01T08:46:40;6.80;72.72
77247;SHT35;66279;42.820;23.374;2023-03-01T08:49:12;6.79;72.14
77247;SHT35;66279;42.820;23.374;2023-03-01T08:51:38;6.82;72.24
77247;SHT35;66279;42.820;23.374;2023-03-01T08:54:05;6.92;72.84
77247;SHT35;66279;42.820;23.374;2023-03-01T08:56:31;7.07;72.49
77247;SHT35;66279;42.820;23.374;2023-03-01T08:58:57;7.07;73.55
77247;SHT35;66279;42.820;23.374;2023-03-01T09:01:23;7.10;74.41
77247;SHT35;66279;42.820;23.374;2023-03-01T09:03:48;7.16;74.37
77247;SHT35;66279;42.820;23.374;2023-03-01T09:06:14;7.13;74.55
77247;SHT35;66279;42.820;23.374;2023-03-01T09:08:46;7.26;74.52
77247;SHT35;66279;42.820;23.374;2023-03-01T09:11:14;7.30;74.66
77247;SHT35;66279;42.820;23.374;2023-03-01T09:13:41;7.37;74.34
77247;SHT35;66279;42.820;23.374;2023-03-01T09:16:07;7.26;74.73
77247;SHT35;66279;42.820;23.374;2023-03-01T09:18:34;7.24;74.98
77247;SHT35;66279;42.820;23.374;2023-03-01T09:21:06;7.24;74.91
77247;SHT35;66279;42.820;23.374;2023-03-01T09:23:35;7.17;74.81
77247;SHT35;66279;42.820;23.374;2023-03-01T09:26:13;7.18;75.03
77247;SHT35;66279;42.820;23.374;2023-03-01T09:28:41;7.18;75.11
77247;SHT35;66279;42.820;23.374;2023-03-01T09:31:07;7.24;75.32
77247;SHT35;66279;42.820;23.374;2023-03-01T09:33:33;7.26;74.75
77247;SHT35;66279;42.820;23.374;2023-03-01T09:36:01;7.32;74.69
77247;SHT35;66279;42.820;23.374;2023-03-01T09:38:27;7.40;73.71
77247;SHT35;66279;42.820;23.374;2023-03-01T09:40:53;7.45;73.23
77247;SHT35;66279;42.820;23.374;2023-03-01T09:43:38;7.40;73.44
77247;SHT35;66279;42.820;23.374;2023-03-01T09:46:09;7.47;73.52
77247;SHT35;66279;42.820;23.374;2023-03-01T09:49:03;7.35;73.17
77247;SHT35;66279;42.820;23.374;2023-03-01T09:51:32;7.48;73.70
77247;SHT35;66279;42.820;23.374;2023-03-01T09:53:58;7.57;73.78
77247;SHT35;66279;42.820;23.374;2023-03-01T09:56:36;7.58;73.54
77247;SHT35;66279;42.820;23.374;2023-03-01T10:04:45;7.58;73.68
77247;SHT35;66279;42.820;23.374;2023-03-01T10:09:53;7.74;73.76
77247;SHT35;66279;42.820;23.374;2023-03-01T10:12:24;7.79;73.04
77247;SHT35;66279;42.820;23.374;2023-03-01T10:14:55;7.71;72.99
77247;SHT35;66279;42.820;23.374;2023-03-01T10:17:52;7.65;73.19
77247;SHT35;66279;42.820;23.374;2023-03-01T10:22:51;7.72;73.08
77247;SHT35;66279;42.820;23.374;2023-03-01T10:26:05;7.64;73.38
77247;SHT35;66279;42.820;23.374;2023-03-01T10:28:31;7.81;73.62
77247;SHT35;66279;42.820;23.374;2023-03-01T10:31:01;7.85;73.30
77247;SHT35;66279;42.820;23.374;2023-03-01T10:33:32;7.78;73.25
77247;SHT35;66279;42.820;23.374;2023-03-01T10:36:00;7.92;73.79
77247;SHT35;66279;42.820;23.374;2023-03-01T10:38:30;7.96;73.60
77247;SHT35;66279;42.820;23.374;2023-03-01T10:41:05;7.95;73.94
77247;SHT35;66279;42.820;23.374;2023-03-01T10:43:48;8.05;73.41
77247;SHT35;66279;42.820;23.374;2023-03-01T10:46:29;8.03;73.19
77247;SHT35;66279;42.820;23.374;2023-03-01T10:49:21;8.16;72.75
77247;SHT35;66279;42.820;23.374;2023-03-01T10:51:52;8.16;72.92
77247;SHT35;66279;42.820;23.374;2023-03-01T10:54:30;8.32;72.52
77247;SHT35;66279;42.820;23.374;2023-03-01T10:57:01;8.37;72.07
77247;SHT35;66279;42.820;23.374;2023-03-01T10:59:38;8.26;72.42
77247;SHT35;66279;42.820;23.374;2023-03-01T11:02:28;8.34;72.38
77247;SHT35;66279;42.820;23.374;2023-03-01T11:05:17;8.29;69.46
77247;SHT35;66279;42.820;23.374;2023-03-01T11:10:34;8.37;69.36
77247;SHT35;66279;42.820;23.374;2023-03-01T11:15:32;8.40;69.22
77247;SHT35;66279;42.820;23.374;2023-03-01T11:17:57;8.51;69.05
77247;SHT35;66279;42.820;23.374;2023-03-01T11:20:35;8.23;68.64
77247;SHT35;66279;42.820;23.374;2023-03-01T11:23:05;8.30;69.38
77247;SHT35;66279;42.820;23.374;2023-03-01T11:25:40;8.40;68.64
77247;SHT35;66279;42.820;23.374;2023-03-01T11:28:12;8.32;68.54
77247;SHT35;66279;42.820;23.374;2023-03-01T11:31:02;8.33;69.11
77247;SHT35;66279;42.820;23.374;2023-03-01T11:38:49;8.19;68.74
77247;SHT35;66279;42.820;23.374;2023-03-01T11:41:19;8.27;68.92
77247;SHT35;66279;42.820;23.374;2023-03-01T11:46:36;8.20;69.32
77247;SHT35;66279;42.820;23.374;2023-03-01T11:52:15;8.34;68.59
77247;SHT35;66279;42.820;23.374;2023-03-01T11:58:07;8.36;68.68
77247;SHT35;66279;42.820;23.374;2023-03-01T12:00:52;8.30;68.33
77247;SHT35;66279;42.820;23.374;2023-03-01T12:03:59;8.37;68.45
77247;SHT35;66279;42.820;23.374;2023-03-01T12:06:52;8.27;68.52
77247;SHT35;66279;42.820;23.374;2023-03-01T12:22:34;7.90;69.66
77247;SHT35;66279;42.820;23.374;2023-03-01T12:28:19;7.86;70.02
77247;SHT35;66279;42.820;23.374;2023-03-01T12:31:15;7.92;70.29
77247;SHT35;66279;42.820;23.374;2023-03-01T12:33:49;7.97;69.89
77247;SHT35;66279;42.820;23.374;2023-03-01T12:38:47;8.07;70.07
77247;SHT35;66279;42.820;23.374;2023-03-01T12:49:51;7.92;70.46
77247;SHT35;66279;42.820;23.374;2023-03-01T12:54:49;8.03;69.95
77247;SHT35;66279;42.820;23.374;2023-03-01T12:57:22;8.09;70.07
77247;SHT35;66279;42.820;23.374;2023-03-01T13:08:42;8.29;69.60
77247;SHT35;66279;42.820;23.374;2023-03-01T13:11:17;8.13;70.45
77247;SHT35;66279;42.820;23.374;2023-03-01T13:13:44;8.17;70.32
77247;SHT35;66279;42.820;23.374;2023-03-01T13:19:15;8.33;70.58
77247;SHT35;66279;42.820;23.374;2023-03-01T13:21:41;8.44;69.72
77247;SHT35;66279;42.820;23.374;2023-03-01T13:24:33;8.51;69.28
77247;SHT35;66279;42.820;23.374;2023-03-01T13:29:48;8.60;69.06
77247;SHT35;66279;42.820;23.374;2023-03-01T13:32:26;8.47;69.34
77247;SHT35;66279;42.820;23.374;2023-03-01T13:37:50;8.32;70.27
77247;SHT35;66279;42.820;23.374;2023-03-01T13:42:49;8.32;70.58
77247;SHT35;66279;42.820;23.374;2023-03-01T13:47:55;8.37;70.41
77247;SHT35;66279;42.820;23.374;2023-03-01T13:50:25;8.41;69.82
77247;SHT35;66279;42.820;23.374;2023-03-01T13:52:55;8.40;70.47
77247;SHT35;66279;42.820;23.374;2023-03-01T13:55:30;8.36;69.93
77247;SHT35;66279;42.820;23.374;2023-03-01T13:57:59;8.27;70.48
77247;SHT35;66279;42.820;23.374;2023-03-01T14:03:04;8.29;71.00
77247;SHT35;66279;42.820;23.374;2023-03-01T14:05:31;8.17;70.57
77247;SHT35;66279;42.820;23.374;2023-03-01T14:07:56;8.19;70.90
77247;SHT35;66279;42.820;23.374;2023-03-01T14:10:26;8.26;70.66
77247;SHT35;66279;42.820;23.374;2023-03-01T14:13:06;8.32;69.86
77247;SHT35;66279;42.820;23.374;2023-03-01T14:15:42;8.17;70.91
77247;SHT35;66279;42.820;23.374;2023-03-01T14:18:21;8.13;71.17
77247;SHT35;66279;42.820;23.374;2023-03-01T14:20:50;8.09;71.32
77247;SHT35;66279;42.820;23.374;2023-03-01T14:23:22;8.02;71.71
77247;SHT35;66279;42.820;23.374;2023-03-01T14:25:55;8.12;72.16
77247;SHT35;66279;42.820;23.374;2023-03-01T14:28:24;8.09;72.97
77247;SHT35;66279;42.820;23.374;2023-03-01T14:30:56;8.06;73.47
77247;SHT35;66279;42.820;23.374;2023-03-01T14:33:32;7.99;73.83
77247;SHT35;66279;42.820;23.374;2023-03-01T14:36:12;7.93;74.40
77247;SHT35;66279;42.820;23.374;2023-03-01T14:38:42;7.86;74.50
77247;SHT35;66279;42.820;23.374;2023-03-01T14:41:15;7.88;74.51
77247;SHT35;66279;42.820;23.374;2023-03-01T14:43:45;7.81;74.66
77247;SHT35;66279;42.820;23.374;2023-03-01T14:46:35;7.75;75.22
77247;SHT35;66279;42.820;23.374;2023-03-01T14:49:05;7.78;75.25
77247;SHT35;66279;42.820;23.374;2023-03-01T14:51:36;7.81;75.25
77247;SHT35;66279;42.820;23.374;2023-03-01T14:54:02;7.79;75.02
77247;SHT35;66279;42.820;23.374;2023-03-01T14:56:43;7.75;75.00
77247;SHT35;66279;42.820;23.374;2023-03-01T14:59:09;7.68;75.51
77247;SHT35;66279;42.820;23.374;2023-03-01T15:01:35;7.61;75.98
77247;SHT35;66279;42.820;23.374;2023-03-01T15:04:01;7.59;76.19
77247;SHT35;66279;42.820;23.374;2023-03-01T15:06:27;7.59;76.39
77247;SHT35;66279;42.820;23.374;2023-03-01T15:08:54;7.57;75.75
77247;SHT35;66279;42.820;23.374;2023-03-01T15:11:24;7.47;75.80
77247;SHT35;66279;42.820;23.374;2023-03-01T15:13:54;7.38;76.10
77247;SHT35;66279;42.820;23.374;2023-03-01T15:16:31;7.35;76.70
77247;SHT35;66279;42.820;23.374;2023-03-01T15:19:06;7.32;76.51
77247;SHT35;66279;42.820;23.374;2023-03-01T15:21:34;7.35;76.85
77247;SHT35;66279;42.820;23.374;2023-03-01T15:29:20;7.30;77.38
77247;SHT35;66279;42.820;23.374;2023-03-01T15:34:36;7.23;77.28
77247;SHT35;66279;42.820;23.374;2023-03-01T15:37:04;7.11;77.99
77247;SHT35;66279;42.820;23.374;2023-03-01T15:42:12;7.14;78.30
77247;SHT35;66279;42.820;23.374;2023-03-01T15:44:40;7.14;77.97
77247;SHT35;66279;42.820;23.374;2023-03-01T15:47:30;7.18;77.62
77247;SHT35;66279;42.820;23.374;2023-03-01T15:49:56;7.06;77.78
77247;SHT35;66279;42.820;23.374;2023-03-01T15:52:39;7.00;77.63
77247;SHT35;66279;42.820;23.374;2023-03-01T15:55:15;6.99;77.64
77247;SHT35;66279;42.820;23.374;2023-03-01T15:57:41;6.97;77.80
77247;SHT35;66279;42.820;23.374;2023-03-01T16:00:10;6.96;77.60
77247;SHT35;66279;42.820;23.374;2023-03-01T16:02:40;6.90;77.63
77247;SHT35;66279;42.820;23.374;2023-03-01T16:05:20;6.87;78.01
77247;SHT35;66279;42.820;23.374;2023-03-01T16:07:46;6.85;78.22
77247;SHT35;66279;42.820;23.374;2023-03-01T16:10:12;6.83;78.03
77247;SHT35;66279;42.820;23.374;2023-03-01T16:12:38;6.83;78.09
77247;SHT35;66279;42.820;23.374;2023-03-01T16:15:09;6.80;78.00
77247;SHT35;66279;42.820;23.374;2023-03-01T16:17:38;6.79;78.12
77247;SHT35;66279;42.820;23.374;2023-03-01T16:20:04;6.79;78.30
77247;SHT35;66279;42.820;23.374;2023-03-01T16:22:30;6.73;78.59
77247;SHT35;66279;42.820;23.374;2023-03-01T16:24:56;6.69;78.69
77247;SHT35;66279;42.820;23.374;2023-03-01T16:27:21;6.68;79.11
77247;SHT35;66279;42.820;23.374;2023-03-01T16:29:47;6.71;79.14
77247;SHT35;66279;42.820;23.374;2023-03-01T16:32:13;6.69;79.32
77247;SHT35;66279;42.820;23.374;2023-03-01T16:34:38;6.61;79.50
77247;SHT35;66279;42.820;23.374;2023-03-01T16:37:04;6.61;79.44
77247;SHT35;66279;42.820;23.374;2023-03-01T16:39:30;6.61;79.66
77247;SHT35;66279;42.820;23.374;2023-03-01T16:41:55;6.56;79.90
77247;SHT35;66279;42.820;23.374;2023-03-01T16:44:21;6.59;79.48
77247;SHT35;66279;42.820;23.374;2023-03-01T16:46:46;6.62;79.66
77247;SHT35;66279;42.820;23.374;2023-03-01T16:49:12;6.61;79.50
77247;SHT35;66279;42.820;23.374;2023-03-01T16:51:37;6.59;79.51
77247;SHT35;66279;42.820;23.374;2023-03-01T16:54:03;6.61;79.47
77247;SHT35;66279;42.820;23.374;2023-03-01T16:56:30;6.56;79.33
77247;SHT35;66279;42.820;23.374;2023-03-01T16:58:58;6.59;79.56
77247;SHT35;66279;42.820;23.374;2023-03-01T17:01:23;6.55;79.21
77247;SHT35;66279;42.820;23.374;2023-03-01T17:03:51;6.50;79.21
77247;SHT35;66279;42.820;23.374;2023-03-01T17:06:19;6.53;79.07
77247;SHT35;66279;42.820;23.374;2023-03-01T17:08:46;6.55;79.10
77247;SHT35;66279;42.820;23.374;2023-03-01T17:11:17;6.55;78.96
77247;SHT35;66279;42.820;23.374;2023-03-01T17:13:43;6.55;78.83
77247;SHT35;66279;42.820;23.374;2023-03-01T17:16:12;6.53;78.89
77247;SHT35;66279;42.820;23.374;2023-03-01T17:18:38;6.55;78.78
77247;SHT35;66279;42.820;23.374;2023-03-01T17:21:05;6.55;78.65
77247;SHT35;66279;42.820;23.374;2023-03-01T17:23:32;6.50;78.63
77247;SHT35;66279;42.820;23.374;2023-03-01T17:25:58;6.49;78.88